createdAt,value
2023-02-16T00:04:09.255Z,1034.4
2023-02-16T00:09:40.874Z,1034.3
2023-02-16T00:15:18.128Z,1034.5
2023-02-16T00:21:04.436Z,1034.5
2023-02-16T00:26:36.925Z,1034.6
2023-02-16T00:31:51.112Z,1034.7
2023-02-16T00:37:25.120Z,1034.6
2023-02-16T00:43:12.186Z,1034.7
2023-02-16T00:48:45.183Z,1034.5
2023-02-16T00:54:08.656Z,1034.5
2023-02-16T00:59:45.655Z,1034.6
2023-02-16T01:05:15.541Z,1034.7
2023-02-16T01:10:52.289Z,1034.8
2023-02-16T01:16:19.131Z,1034.6
2023-02-16T01:21:53.242Z,1034.6
2023-02-16T01:27:30.880Z,1034.6
2023-02-16T01:33:02.702Z,1034.7
2023-02-16T01:38:32.918Z,1034.7
2023-02-16T01:44:00.489Z,1034.6
2023-02-16T01:49:48.983Z,1034.6
2023-02-16T01:54:55.888Z,1034.6
2023-02-16T02:00:38.968Z,1034.7
2023-02-16T02:06:27.326Z,1034.6
2023-02-16T02:11:37.017Z,1034.6
2023-02-16T02:17:13.638Z,1034.6
2023-02-16T02:23:02.576Z,1034.5
2023-02-16T02:28:18.913Z,1034.7
2023-02-16T02:33:45.631Z,1034.7
2023-02-16T02:39:28.832Z,1034.7
2023-02-16T02:44:59.458Z,1034.8
2023-02-16T02:50:28.078Z,1034.7
2023-02-16T02:56:07.368Z,1034.5
2023-02-16T03:01:30.970Z,1034.5
2023-02-16T03:06:57.759Z,1034.7
2023-02-16T03:12:58.012Z,1034.6
2023-02-16T03:18:26.008Z,1034.5
2023-02-16T03:23:59.703Z,1034.5
2023-02-16T03:29:09.232Z,1034.5
2023-02-16T03:35:05.899Z,1034.6
2023-02-16T03:40:21.729Z,1034.6
2023-02-16T03:46:12.468Z,1034.6
2023-02-16T03:51:35.587Z,1034.6
2023-02-16T03:56:54.886Z,1034.7
2023-02-16T04:02:36.275Z,1034.8
2023-02-16T04:08:02.390Z,1034.7
2023-02-16T04:13:49.184Z,1034.8
2023-02-16T04:19:06.414Z,1034.9
2023-02-16T04:24:39.140Z,1035
2023-02-16T04:30:06.741Z,1035
2023-02-16T04:35:56.222Z,1035
2023-02-16T04:41:13.324Z,1035
2023-02-16T04:46:53.528Z,1035
2023-02-16T04:52:33.281Z,1035.2
2023-02-16T04:57:58.466Z,1035.1
2023-02-16T05:03:42.668Z,1035
2023-02-16T05:09:09.385Z,1035.1
2023-02-16T05:14:55.508Z,1035.1
2023-02-16T05:20:20.158Z,1035.3
2023-02-16T05:25:52.137Z,1035.4
2023-02-16T05:31:15.538Z,1035.3
2023-02-16T05:36:43.164Z,1035.3
2023-02-16T05:42:15.469Z,1035.2
2023-02-16T05:47:56.418Z,1035.2
2023-02-16T05:53:21.976Z,1035.3
2023-02-16T05:58:51.543Z,1035.3
2023-02-16T06:04:26.931Z,1035.3
2023-02-16T06:10:18.424Z,1035.4
2023-02-16T06:15:45.676Z,1035.4
2023-02-16T06:20:58.143Z,1035.5
2023-02-16T06:26:34.214Z,1035.5
2023-02-16T06:32:27.723Z,1035.6
2023-02-16T06:37:50.728Z,1035.5
2023-02-16T06:43:21.065Z,1035.5
2023-02-16T06:48:49.025Z,1035.6
2023-02-16T06:54:27.153Z,1035.7
2023-02-16T07:00:05.953Z,1035.8
2023-02-16T07:05:31.584Z,1035.7
2023-02-16T07:10:52.757Z,1035.7
2023-02-16T07:16:25.832Z,1035.7
2023-02-16T07:21:57.366Z,1035.8
2023-02-16T07:27:34.222Z,1035.9
2023-02-16T07:33:17.514Z,1035.7
2023-02-16T07:38:49.311Z,1035.8
2023-02-16T07:44:29.541Z,1035.7
2023-02-16T07:49:47.904Z,1035.7
2023-02-16T07:55:30.968Z,1035.7
2023-02-16T08:00:48.362Z,1035.7
2023-02-16T08:06:40.607Z,1035.4
2023-02-16T08:11:58.021Z,1035.4
2023-02-16T08:17:31.718Z,1035.5
2023-02-16T08:23:07.842Z,1035.2
2023-02-16T08:28:45.192Z,1035.2
2023-02-16T08:34:09.258Z,1035
2023-02-16T08:39:51.125Z,1035.3
2023-02-16T08:45:29.343Z,1035.4
2023-02-16T08:51:10.100Z,1035.4
2023-02-16T08:56:34.755Z,1035.2
2023-02-16T09:02:07.756Z,1035.2
2023-02-16T09:07:28.290Z,1035.2
2023-02-16T09:13:17.270Z,1035.1
2023-02-16T09:19:01.001Z,1035.1
2023-02-16T09:24:23.616Z,1034.9
2023-02-16T09:30:10.624Z,1034.6
2023-02-16T09:35:38.551Z,1034.4
2023-02-16T09:40:55.230Z,1034.2
2023-02-16T09:46:30.878Z,1034.3
2023-02-16T09:52:07.657Z,1034.2
2023-02-16T09:57:55.798Z,1034.1
2023-02-16T10:03:11.736Z,1033.7
2023-02-16T10:08:37.109Z,1033.7
2023-02-16T10:14:22.930Z,1033.8
2023-02-16T10:19:46.012Z,1033.8
2023-02-16T10:25:41.211Z,1033.7
2023-02-16T10:31:03.906Z,1033.7
2023-02-16T10:36:36.953Z,1033.6
2023-02-16T10:41:59.286Z,1033.4
2023-02-16T10:47:38.612Z,1033.5
2023-02-16T10:53:10.398Z,1033.4
2023-02-16T10:58:55.370Z,1033.2
2023-02-16T11:04:36.312Z,1033
2023-02-16T11:10:03.264Z,1032.8
2023-02-16T11:15:32.824Z,1032.6
2023-02-16T11:20:53.306Z,1032.6
2023-02-16T11:26:46.780Z,1032.5
2023-02-16T11:32:24.916Z,1032.7
2023-02-16T11:37:50.753Z,1032.6
2023-02-16T11:49:02.507Z,1032.3
2023-02-16T11:54:39.480Z,1032.2
2023-02-16T12:00:04.480Z,1031.9
2023-02-16T12:05:27.159Z,1032.1
2023-02-16T12:11:14.452Z,1031.9
2023-02-16T12:16:29.404Z,1031.7
2023-02-16T12:22:06.521Z,1031.7
2023-02-16T12:27:50.060Z,1031.6
2023-02-16T12:33:12.404Z,1031.3
2023-02-16T12:38:52.902Z,1031.4
2023-02-16T12:44:45.065Z,1031.2
2023-02-16T12:50:04.139Z,1031.1
2023-02-16T12:55:48.686Z,1031.1
2023-02-16T13:01:22.813Z,1031
2023-02-16T13:06:38.715Z,1030.9
2023-02-16T13:12:31.908Z,1030.8
2023-02-16T13:18:01.958Z,1030.5
2023-02-16T13:23:29.028Z,1030.4
2023-02-16T13:29:16.931Z,1030.3
2023-02-16T13:34:51.014Z,1030.5
2023-02-16T13:40:20.511Z,1030.3
2023-02-16T13:46:09.567Z,1030.3
2023-02-16T13:51:24.764Z,1030.3
2023-02-16T13:57:11.708Z,1030.3
2023-02-16T14:02:51.012Z,1030.1
2023-02-16T14:08:27.834Z,1030
2023-02-16T14:14:01.526Z,1029.8
2023-02-16T14:19:40.743Z,1029.6
2023-02-16T14:25:07.151Z,1029.7
2023-02-16T14:30:34.476Z,1029.7
2023-02-16T14:36:32.390Z,1029.6
2023-02-16T14:41:55.683Z,1029.4
2023-02-16T14:47:20.708Z,1029.3
2023-02-16T14:52:58.050Z,1029.4
2023-02-16T14:58:50.550Z,1029.5
2023-02-16T15:04:24.035Z,1029.5
2023-02-16T15:10:03.826Z,1029.6
2023-02-16T15:15:44.001Z,1029.8
2023-02-16T15:21:07.909Z,1029.9
2023-02-16T15:26:49.158Z,1030
2023-02-16T15:32:08.331Z,1030.1
2023-02-16T15:37:38.752Z,1030.1
2023-02-16T15:43:21.945Z,1030
2023-02-16T15:48:58.898Z,1029.9
2023-02-16T15:54:41.669Z,1030.1
2023-02-16T15:59:50.645Z,1029.8
2023-02-16T16:05:28.371Z,1029.9
2023-02-16T16:11:10.821Z,1029.8
2023-02-16T16:16:39.486Z,1029.8
2023-02-16T16:22:09.150Z,1029.9
2023-02-16T16:27:51.408Z,1029.9
2023-02-16T16:33:13.799Z,1030.3
2023-02-16T16:38:52.156Z,1030.2
2023-02-16T16:44:43.332Z,1030.1
2023-02-16T16:49:57.587Z,1030.2
2023-02-16T16:55:32.377Z,1030.3
2023-02-16T17:01:03.579Z,1030.4
2023-02-16T17:06:39.775Z,1030.3
2023-02-16T17:12:30.052Z,1030.3
2023-02-16T17:17:57.365Z,1030.4
2023-02-16T17:28:50.045Z,1030.6
2023-02-16T17:34:25.383Z,1030.8
2023-02-16T17:40:09.030Z,1030.8
2023-02-16T17:45:47.984Z,1030.8
2023-02-16T17:51:09.353Z,1030.8
2023-02-16T17:56:48.439Z,1030.8
2023-02-16T18:02:38.279Z,1030.8
2023-02-16T18:07:55.761Z,1031.2
2023-02-16T18:18:57.574Z,1031
2023-02-16T18:24:42.378Z,1031.2
2023-02-16T18:30:24.050Z,1031.3
2023-02-16T18:35:57.751Z,1031.3
2023-02-16T18:41:24.058Z,1031.3
2023-02-16T18:46:45.210Z,1031.2
2023-02-16T18:52:19.757Z,1031.5
2023-02-16T18:58:14.635Z,1031.4
2023-02-16T19:03:38.975Z,1031.4
2023-02-16T19:09:20.456Z,1031.6
2023-02-16T19:14:46.970Z,1031.5
2023-02-16T19:20:16.676Z,1031.4
2023-02-16T19:25:40.513Z,1031.4
2023-02-16T19:31:26.162Z,1031.9
2023-02-16T19:36:55.727Z,1031.9
2023-02-16T19:42:34.409Z,1031.9
2023-02-16T19:48:17.602Z,1031.9
2023-02-16T19:53:35.761Z,1032.1
2023-02-16T19:59:08.209Z,1031.9
2023-02-16T20:04:35.622Z,1031.9
2023-02-16T20:10:10.921Z,1032
2023-02-16T20:16:00.851Z,1032.1
2023-02-16T20:21:19.345Z,1032
2023-02-16T20:27:12.567Z,1032.2
2023-02-16T20:32:29.734Z,1032.2
2023-02-16T20:37:58.059Z,1032.2
2023-02-16T20:43:44.718Z,1032.3
2023-02-16T20:49:07.118Z,1032.5
2023-02-16T20:54:58.403Z,1032.6
2023-02-16T21:00:12.933Z,1032.4
2023-02-16T21:05:39.186Z,1032.4
2023-02-16T21:11:32.991Z,1032.6
2023-02-16T21:16:51.519Z,1032.6
2023-02-16T21:22:25.238Z,1032.6
2023-02-16T21:28:04.234Z,1032.5
2023-02-16T21:33:53.206Z,1032.6
2023-02-16T21:39:06.193Z,1032.6
2023-02-16T21:44:56.675Z,1032.5
2023-02-16T21:50:12.375Z,1032.5
2023-02-16T21:55:49.146Z,1032.7
2023-02-16T22:01:11.447Z,1032.9
2023-02-16T22:06:52.922Z,1033.1
2023-02-16T22:12:22.481Z,1033
2023-02-16T22:17:57.308Z,1033
2023-02-16T22:23:51.833Z,1033.1
2023-02-16T22:29:15.392Z,1032.9
2023-02-16T22:34:47.146Z,1033
2023-02-16T22:40:27.440Z,1033.1
2023-02-16T22:45:44.608Z,1033.2
2023-02-16T22:51:25.073Z,1033.3
2023-02-16T22:57:01.971Z,1033.2
2023-02-16T23:02:16.566Z,1033.2
2023-02-16T23:07:55.513Z,1033.2
2023-02-16T23:13:30.295Z,1033.2
2023-02-16T23:19:20.921Z,1033.4
2023-02-16T23:24:56.113Z,1033.5
2023-02-16T23:30:24.256Z,1033.6
2023-02-16T23:35:50.202Z,1033.6
2023-02-16T23:41:23.354Z,1033.7
2023-02-16T23:46:53.386Z,1033.7
2023-02-16T23:52:30.545Z,1033.7
2023-02-16T23:58:13.937Z,1033.6
